Strona główna
METAR-TAF:

METAR-TAF

Lotnisko :

Futenma, Japonia

Szerokość geograficzna: 26-16N, Długość geograficzna: 127-45E, wysokość: 75 m

Aktualna obserwacja pogody

Raport powstał 41 minut temu, godzina 17:56 UTC
Wiatr 10 kt od wschodnio-północny wschód
Temperatura 17°C
Wilgotność 68%
Ciśnienie 1029 hPa
Widzialność: 16.1 km
Mało chmury na wysokości 3000 ft

METAR: ROTM 201756Z 07010KT 10SM FEW030 17/11 A3038 RMK AO2 SLP273 T01670111 10172 20144 56010 $

czas: 03:37 (18:37 UTC)

Prognoza

Prognoza ważna od 20 godzina 15 UTC do 21 godzina 15 UTC
Wiatr 5 kt od północny wschód
Widzialność 10 km lub więcej
Mało chmury na wysokości 4000 ft
Rozproszone chmury na wysokości 6000 ft
Rozproszone chmury na wysokości 8000 ft
Stopniowe zmiany
od 21 godzina 00 UTC do 21 godzina 02 UTC
Wiatr 12 kt od wschodnio-południowy wschód w porywach dochodzący do 18 kt

TAF: ROTM 2015/2115 05005KT 9999 FEW040 SCT060 SCT080 QNH3036INS BECMG 2100/2102 11012G18KT QNH3034INS T13/2019Z T21/2104Z

Obserwacja i prognoza pogody dla ponad 4000 lotnisk (raport METAR i TAF).

Dostępne stacje oznaczono żółtymi i czerwonymi punktami na mapie.

Najedź kursorem aby zobaczyć nazwę stacji.

Kliknij aby zobaczyć obserwacje i prognozy pogody.

Aby zmienić mapę: kliknij na zielony przycisk z czarnym krzyżykiem, aby powiększyć; na zielony przycisk z myślnikiem, aby pomniejszyć; na zielone strzałki, aby przejść do map sąsiednich.


METAR-TAF: